createdAt,value
2023-01-06T00:02:34.204Z,85.35
2023-01-06T00:07:36.253Z,86.25
2023-01-06T00:12:36.894Z,85.50
2023-01-06T00:17:37.568Z,86.42
2023-01-06T00:22:40.505Z,86.84
2023-01-06T00:27:41.498Z,87.20
2023-01-06T00:32:42.185Z,86.75
2023-01-06T00:37:44.202Z,87.16
2023-01-06T00:42:44.879Z,87.03
2023-01-06T00:47:45.567Z,86.90
2023-01-06T00:52:48.890Z,86.82
2023-01-06T00:57:52.612Z,87.38
2023-01-06T01:02:53.415Z,87.27
2023-01-06T01:07:55.487Z,86.87
2023-01-06T01:12:56.145Z,87.16
2023-01-06T01:17:58.150Z,86.89
2023-01-06T01:23:00.140Z,87.18
2023-01-06T01:28:00.775Z,86.96
2023-01-06T01:33:01.436Z,86.99
2023-01-06T01:38:03.442Z,86.46
2023-01-06T01:43:04.130Z,86.52
2023-01-06T01:48:12.792Z,87.13
2023-01-06T01:53:19.014Z,87.26
2023-01-06T01:58:24.541Z,86.34
2023-01-06T02:03:27.393Z,86.59
2023-01-06T02:08:34.707Z,87.16
2023-01-06T02:13:40.038Z,87.24
2023-01-06T02:18:51.896Z,86.62
2023-01-06T02:24:25.012Z,86.46
2023-01-06T02:29:58.559Z,86.74
2023-01-06T02:35:13.568Z,85.97
2023-01-06T02:40:27.338Z,87.13
2023-01-06T02:45:36.647Z,87.44
2023-01-06T02:50:42.775Z,87.17
2023-01-06T02:55:47.589Z,87.42
2023-01-06T03:00:52.209Z,86.97
2023-01-06T03:06:00.418Z,87.17
2023-01-06T03:11:03.260Z,86.72
2023-01-06T03:16:06.903Z,86.80
2023-01-06T03:21:12.693Z,87.32
2023-01-06T03:26:14.194Z,86.87
2023-01-06T03:31:28.153Z,86.83
2023-01-06T03:36:40.260Z,86.81
2023-01-06T03:42:02.548Z,86.76
2023-01-06T03:47:09.004Z,86.76
2023-01-06T03:52:20.218Z,86.49
2023-01-06T03:57:25.808Z,85.94
2023-01-06T04:02:28.896Z,85.07
2023-01-06T04:07:31.821Z,86.44
2023-01-06T04:12:41.898Z,86.09
2023-01-06T04:17:48.597Z,86.40
2023-01-06T04:22:53.964Z,86.21
2023-01-06T04:27:55.228Z,85.82
2023-01-06T04:32:56.697Z,85.49
2023-01-06T04:37:58.730Z,85.52
2023-01-06T04:43:05.467Z,85.19
2023-01-06T04:48:08.525Z,85.26
2023-01-06T04:53:11.947Z,85.22
2023-01-06T04:58:12.822Z,84.98
2023-01-06T05:03:13.683Z,85.04
2023-01-06T05:08:15.663Z,85.19
2023-01-06T05:13:16.342Z,84.71
2023-01-06T05:18:16.991Z,84.97
2023-01-06T05:23:19.068Z,84.88
2023-01-06T05:28:20.185Z,84.66
2023-01-06T05:33:20.842Z,85.42
2023-01-06T05:38:22.850Z,84.56
2023-01-06T05:43:23.731Z,84.44
2023-01-06T05:48:26.036Z,85.42
2023-01-06T05:53:28.025Z,86.05
2023-01-06T05:58:28.953Z,87.32
2023-01-06T06:03:29.666Z,87.78
2023-01-06T06:08:31.746Z,87.99
2023-01-06T06:13:32.578Z,88.40
2023-01-06T06:18:33.371Z,88.22
2023-01-06T06:23:35.405Z,89.11
2023-01-06T06:28:37.378Z,88.60
2023-01-06T06:33:38.639Z,88.76
2023-01-06T06:38:40.664Z,88.72
2023-01-06T06:43:42.110Z,89.15
2023-01-06T06:48:42.891Z,89.13
2023-01-06T06:53:45.176Z,88.06
2023-01-06T06:58:46.356Z,88.93
2023-01-06T07:03:47.160Z,89.44
2023-01-06T07:08:49.952Z,88.87
2023-01-06T07:13:50.673Z,89.83
2023-01-06T07:18:51.318Z,89.19
2023-01-06T07:23:53.310Z,89.16
2023-01-06T07:28:58.392Z,89.27
2023-01-06T07:33:59.056Z,89.85
2023-01-06T07:39:01.467Z,90.00
2023-01-06T07:44:02.142Z,89.50
2023-01-06T07:49:02.856Z,89.72
2023-01-06T07:54:04.994Z,89.41
2023-01-06T07:59:05.991Z,89.28
2023-01-06T08:04:06.668Z,89.10
2023-01-06T08:09:09.131Z,89.57
2023-01-06T08:14:09.760Z,89.54
2023-01-06T08:19:10.548Z,89.56
2023-01-06T08:24:12.673Z,89.39
2023-01-06T08:29:13.650Z,89.33
2023-01-06T08:34:15.478Z,89.25
2023-01-06T08:39:17.522Z,88.71
2023-01-06T08:44:18.598Z,88.95
2023-01-06T08:49:20.438Z,88.77
2023-01-06T08:54:23.906Z,88.35
2023-01-06T08:59:24.728Z,87.66
2023-01-06T09:04:25.432Z,87.05
2023-01-06T09:09:28.778Z,86.97
2023-01-06T09:14:30.810Z,86.12
2023-01-06T09:19:31.534Z,86.28
2023-01-06T09:24:33.662Z,86.11
2023-01-06T09:29:34.498Z,86.23
2023-01-06T09:34:35.181Z,85.71
2023-01-06T09:39:37.977Z,86.02
2023-01-06T09:44:47.516Z,85.46
2023-01-06T09:49:53.042Z,85.07
2023-01-06T09:54:58.966Z,84.97
2023-01-06T10:00:02.113Z,84.54
2023-01-06T10:05:02.934Z,84.43
2023-01-06T10:10:22.234Z,83.64
2023-01-06T10:15:31.205Z,83.40
2023-01-06T10:20:53.160Z,82.46
2023-01-06T10:26:00.611Z,82.17
2023-01-06T10:31:05.798Z,82.05
2023-01-06T10:36:13.550Z,81.85
2023-01-06T10:41:23.573Z,82.50
2023-01-06T10:46:29.487Z,82.82
2023-01-06T10:51:37.852Z,82.26
2023-01-06T10:56:44.274Z,82.71
2023-01-06T11:01:54.282Z,82.59
2023-01-06T11:06:56.978Z,82.06
2023-01-06T11:12:00.948Z,81.15
2023-01-06T11:17:04.353Z,81.12
2023-01-06T11:22:06.133Z,81.22
2023-01-06T11:27:18.560Z,79.43
2023-01-06T11:32:22.706Z,76.08
2023-01-06T11:37:34.439Z,75.36
2023-01-06T11:42:36.547Z,73.70
2023-01-06T11:47:39.269Z,72.18
2023-01-06T11:52:41.145Z,71.80
2023-01-06T11:57:51.129Z,70.43
2023-01-06T12:02:56.808Z,71.77
2023-01-06T12:07:59.510Z,69.89
2023-01-06T12:13:01.680Z,70.27
2023-01-06T12:18:06.150Z,73.11
2023-01-06T12:23:12.495Z,78.05
2023-01-06T12:28:19.510Z,79.21
2023-01-06T12:33:26.099Z,79.72
2023-01-06T12:38:40.085Z,79.88
2023-01-06T12:43:50.039Z,79.03
2023-01-06T12:48:55.380Z,78.17
2023-01-06T12:54:02.989Z,77.39
2023-01-06T12:59:16.518Z,77.99
2023-01-06T13:04:41.261Z,76.66
2023-01-06T13:09:53.641Z,75.04
2023-01-06T13:15:04.778Z,72.46
2023-01-06T13:20:10.884Z,70.52
2023-01-06T13:25:42.329Z,70.76
2023-01-06T13:31:12.246Z,69.43
2023-01-06T13:36:44.700Z,67.14
2023-01-06T13:41:49.606Z,66.60
2023-01-06T13:46:54.678Z,65.99
2023-01-06T13:51:55.419Z,66.23
2023-01-06T13:57:29.278Z,66.52
2023-01-06T14:03:26.542Z,66.53
2023-01-06T14:08:35.493Z,66.32
2023-01-06T14:13:40.889Z,65.78
2023-01-06T14:18:44.238Z,66.55
2023-01-06T14:23:56.768Z,66.41
2023-01-06T14:29:36.149Z,65.40
2023-01-06T14:34:39.283Z,66.91
2023-01-06T14:39:42.831Z,66.68
2023-01-06T14:44:47.587Z,66.37
2023-01-06T14:49:57.366Z,66.82
2023-01-06T14:55:00.516Z,66.18
2023-01-06T15:00:16.269Z,66.37
2023-01-06T15:05:20.382Z,66.29
2023-01-06T15:10:22.828Z,65.90
2023-01-06T15:15:25.135Z,65.74
2023-01-06T15:20:30.519Z,65.35
2023-01-06T15:25:34.978Z,67.76
2023-01-06T15:30:36.767Z,67.83
2023-01-06T15:35:37.638Z,68.04
2023-01-06T15:40:40.718Z,68.52
2023-01-06T15:45:41.457Z,68.63
2023-01-06T15:50:42.359Z,67.94
2023-01-06T15:55:51.775Z,67.25
2023-01-06T16:00:58.403Z,65.32
2023-01-06T16:06:11.117Z,65.60
2023-01-06T16:11:41.679Z,67.27
2023-01-06T16:16:42.506Z,66.03
2023-01-06T16:21:45.250Z,65.79
2023-01-06T16:26:53.611Z,65.76
2023-01-06T16:31:54.315Z,66.83
2023-01-06T16:36:56.753Z,70.09
2023-01-06T16:42:40.455Z,71.82
2023-01-06T16:47:41.473Z,72.24
2023-01-06T16:52:42.349Z,71.21
2023-01-06T16:57:48.938Z,70.78
2023-01-06T17:02:51.185Z,70.40
2023-01-06T17:07:53.323Z,69.58
2023-01-06T17:13:15.229Z,69.05
2023-01-06T17:18:24.347Z,69.45
2023-01-06T17:23:25.058Z,69.21
2023-01-06T17:28:27.049Z,70.39
2023-01-06T17:33:29.628Z,69.20
2023-01-06T17:38:31.483Z,70.46
2023-01-06T17:43:36.245Z,71.07
2023-01-06T17:48:37.070Z,71.48
2023-01-06T17:53:55.677Z,71.55
2023-01-06T17:59:03.299Z,72.32
2023-01-06T18:04:09.096Z,71.93
2023-01-06T18:09:13.379Z,72.55
2023-01-06T18:14:27.984Z,71.79
2023-01-06T18:19:31.905Z,72.11
2023-01-06T18:24:37.365Z,71.46
2023-01-06T18:29:41.684Z,71.27
2023-01-06T18:34:44.989Z,71.45
2023-01-06T18:39:48.154Z,71.34
2023-01-06T18:44:50.955Z,71.56
2023-01-06T18:49:58.492Z,71.54
2023-01-06T18:55:00.687Z,71.74
2023-01-06T19:00:13.312Z,72.11
2023-01-06T19:05:14.738Z,71.94
2023-01-06T19:10:26.489Z,72.30
2023-01-06T19:15:28.546Z,72.24
2023-01-06T19:20:35.156Z,72.79
2023-01-06T19:25:40.851Z,72.71
2023-01-06T19:30:49.499Z,72.21
2023-01-06T19:35:51.824Z,72.68
2023-01-06T19:40:53.631Z,72.66
2023-01-06T19:45:55.804Z,72.73
2023-01-06T19:51:09.461Z,72.53
2023-01-06T19:56:17.373Z,73.00
2023-01-06T20:01:19.909Z,72.74
2023-01-06T20:06:21.567Z,72.64
2023-01-06T20:11:24.521Z,72.44
2023-01-06T20:16:26.573Z,73.01
2023-01-06T20:21:27.307Z,72.77
2023-01-06T20:26:28.032Z,72.84
2023-01-06T20:31:30.111Z,72.23
2023-01-06T20:36:30.951Z,72.59
2023-01-06T20:41:31.683Z,72.75
2023-01-06T20:46:33.705Z,73.29
2023-01-06T20:51:34.490Z,73.80
2023-01-06T20:56:35.150Z,73.96
2023-01-06T21:01:37.303Z,73.80
2023-01-06T21:06:38.039Z,72.70
2023-01-06T21:11:38.719Z,73.71
2023-01-06T21:16:40.770Z,74.15
2023-01-06T21:21:41.479Z,74.23
2023-01-06T21:26:42.179Z,74.27
2023-01-06T21:31:44.288Z,75.01
2023-01-06T21:36:45.008Z,74.99
2023-01-06T21:42:03.131Z,74.59
2023-01-06T21:47:05.424Z,74.62
2023-01-06T21:52:06.886Z,74.53
2023-01-06T21:57:07.606Z,75.03
2023-01-06T22:02:10.558Z,74.97
2023-01-06T22:07:11.675Z,75.35
2023-01-06T22:12:16.291Z,75.78
2023-01-06T22:17:19.366Z,76.06
2023-01-06T22:22:22.155Z,76.52
2023-01-06T22:27:23.855Z,75.88
2023-01-06T22:32:27.634Z,75.53
2023-01-06T22:37:28.304Z,75.33
2023-01-06T22:42:29.062Z,75.55
2023-01-06T22:47:31.140Z,75.88
2023-01-06T22:52:32.071Z,75.76
2023-01-06T22:57:32.765Z,76.38
2023-01-06T23:02:34.944Z,76.37
2023-01-06T23:07:38.124Z,75.35
2023-01-06T23:12:40.593Z,75.87
2023-01-06T23:17:42.587Z,76.10
2023-01-06T23:22:43.315Z,76.11
2023-01-06T23:27:44.103Z,76.44
2023-01-06T23:32:46.136Z,75.75
2023-01-06T23:37:46.765Z,76.34
2023-01-06T23:42:48.854Z,76.01
2023-01-06T23:47:51.080Z,76.20
2023-01-06T23:52:53.546Z,75.29
2023-01-06T23:57:55.355Z,76.26
